Detroit, Michigan
Traffic Map
Current Weather Conditions
Detroit, Michigan
Clear
Clear
70°
Feels Like: 70°
Wind Chill: 70° Ceiling: Unl
Heat Index: 70° Visibility: 9mi
Dew Point: 64° Wind: 10mph
Humidity: 83% Direction: 40° (NE)
Pressure: 29.94in Gusts: 17mph
Raw Report DataCYQG 190100Z AUTO 04009G15KT 9SM CLR 21/18 A2994 RMK PRESRRSLP137 DENSITY ALT 1400FT
Traffic Incident Summary
Active as of:
Severity:
Category:
InformationThere was an issue retrieving the traffic information for this location. Please try a different location or try again shortly.
Advertisements